sensor_id;sensor_type;location;lat;lon;timestamp;P1;durP1;ratioP1;P2;durP2;ratioP2
15012;SDS011;7603;49.432;11.418;2023-06-19T00:00:56;7.35;;;6.75;;
15012;SDS011;7603;49.432;11.418;2023-06-19T00:03:22;7.47;;;6.97;;
15012;SDS011;7603;49.432;11.418;2023-06-19T00:05:47;7.70;;;7.20;;
15012;SDS011;7603;49.432;11.418;2023-06-19T00:08:13;6.88;;;6.45;;
15012;SDS011;7603;49.432;11.418;2023-06-19T00:10:38;7.32;;;6.72;;
15012;SDS011;7603;49.432;11.418;2023-06-19T00:13:04;7.57;;;6.55;;
15012;SDS011;7603;49.432;11.418;2023-06-19T00:15:30;7.55;;;6.07;;
15012;SDS011;7603;49.432;11.418;2023-06-19T00:17:56;7.25;;;6.75;;
15012;SDS011;7603;49.432;11.418;2023-06-19T00:20:22;6.75;;;6.35;;
15012;SDS011;7603;49.432;11.418;2023-06-19T00:22:48;6.93;;;6.43;;
15012;SDS011;7603;49.432;11.418;2023-06-19T00:25:16;7.28;;;6.72;;
15012;SDS011;7603;49.432;11.418;2023-06-19T00:27:46;7.22;;;6.72;;
15012;SDS011;7603;49.432;11.418;2023-06-19T00:30:12;7.22;;;6.65;;
15012;SDS011;7603;49.432;11.418;2023-06-19T00:32:38;6.93;;;6.28;;
15012;SDS011;7603;49.432;11.418;2023-06-19T00:35:14;6.50;;;6.10;;
15012;SDS011;7603;49.432;11.418;2023-06-19T00:37:41;6.88;;;6.45;;
15012;SDS011;7603;49.432;11.418;2023-06-19T00:40:19;6.72;;;6.22;;
15012;SDS011;7603;49.432;11.418;2023-06-19T00:42:52;7.40;;;6.90;;
15012;SDS011;7603;49.432;11.418;2023-06-19T00:45:17;6.63;;;6.22;;
15012;SDS011;7603;49.432;11.418;2023-06-19T00:47:43;8.68;;;6.53;;
15012;SDS011;7603;49.432;11.418;2023-06-19T00:50:08;6.75;;;6.10;;
15012;SDS011;7603;49.432;11.418;2023-06-19T00:52:34;6.65;;;6.25;;
15012;SDS011;7603;49.432;11.418;2023-06-19T00:55:00;7.20;;;6.70;;
15012;SDS011;7603;49.432;11.418;2023-06-19T00:57:27;6.70;;;6.20;;
15012;SDS011;7603;49.432;11.418;2023-06-19T00:59:54;7.38;;;6.78;;
15012;SDS011;7603;49.432;11.418;2023-06-19T01:02:20;6.80;;;6.18;;
15012;SDS011;7603;49.432;11.418;2023-06-19T01:04:49;6.75;;;6.35;;
15012;SDS011;7603;49.432;11.418;2023-06-19T01:07:17;7.13;;;6.60;;
15012;SDS011;7603;49.432;11.418;2023-06-19T01:09:51;7.28;;;6.72;;
15012;SDS011;7603;49.432;11.418;2023-06-19T01:12:24;7.35;;;6.72;;
15012;SDS011;7603;49.432;11.418;2023-06-19T01:15:03;6.88;;;6.47;;
15012;SDS011;7603;49.432;11.418;2023-06-19T01:17:30;6.93;;;6.53;;
15012;SDS011;7603;49.432;11.418;2023-06-19T01:19:56;6.25;;;5.90;;
15012;SDS011;7603;49.432;11.418;2023-06-19T01:22:29;7.40;;;6.28;;
15012;SDS011;7603;49.432;11.418;2023-06-19T01:24:56;6.63;;;6.13;;
15012;SDS011;7603;49.432;11.418;2023-06-19T01:27:25;7.07;;;6.55;;
15012;SDS011;7603;49.432;11.418;2023-06-19T01:29:54;6.75;;;6.25;;
15012;SDS011;7603;49.432;11.418;2023-06-19T01:33:07;6.53;;;6.07;;
15012;SDS011;7603;49.432;11.418;2023-06-19T01:35:13;6.88;;;6.47;;
15012;SDS011;7603;49.432;11.418;2023-06-19T01:37:42;6.20;;;5.80;;
15012;SDS011;7603;49.432;11.418;2023-06-19T01:40:10;6.93;;;6.53;;
15012;SDS011;7603;49.432;11.418;2023-06-19T01:42:37;7.00;;;6.50;;
15012;SDS011;7603;49.432;11.418;2023-06-19T01:45:04;6.22;;;5.85;;
15012;SDS011;7603;49.432;11.418;2023-06-19T01:47:33;7.10;;;6.50;;
15012;SDS011;7603;49.432;11.418;2023-06-19T01:49:58;7.57;;;6.90;;
15012;SDS011;7603;49.432;11.418;2023-06-19T01:52:24;7.35;;;6.75;;
15012;SDS011;7603;49.432;11.418;2023-06-19T01:54:50;6.25;;;5.85;;
15012;SDS011;7603;49.432;11.418;2023-06-19T01:57:16;7.40;;;6.90;;
15012;SDS011;7603;49.432;11.418;2023-06-19T01:59:43;7.13;;;6.47;;
15012;SDS011;7603;49.432;11.418;2023-06-19T02:02:08;6.20;;;5.78;;
15012;SDS011;7603;49.432;11.418;2023-06-19T02:04:34;6.68;;;6.25;;
15012;SDS011;7603;49.432;11.418;2023-06-19T02:07:00;6.25;;;5.85;;
15012;SDS011;7603;49.432;11.418;2023-06-19T02:09:25;7.00;;;6.50;;
15012;SDS011;7603;49.432;11.418;2023-06-19T02:11:51;6.88;;;6.45;;
15012;SDS011;7603;49.432;11.418;2023-06-19T02:14:16;7.00;;;6.50;;
15012;SDS011;7603;49.432;11.418;2023-06-19T02:16:42;7.03;;;6.40;;
15012;SDS011;7603;49.432;11.418;2023-06-19T02:19:09;10.82;;;6.57;;
15012;SDS011;7603;49.432;11.418;2023-06-19T02:21:35;6.68;;;6.07;;
15012;SDS011;7603;49.432;11.418;2023-06-19T02:24:01;7.65;;;6.75;;
15012;SDS011;7603;49.432;11.418;2023-06-19T02:26:27;6.75;;;6.15;;
15012;SDS011;7603;49.432;11.418;2023-06-19T02:28:54;7.20;;;6.25;;
15012;SDS011;7603;49.432;11.418;2023-06-19T02:31:22;7.18;;;6.57;;
15012;SDS011;7603;49.432;11.418;2023-06-19T02:33:48;7.28;;;6.78;;
15012;SDS011;7603;49.432;11.418;2023-06-19T02:36:14;7.57;;;6.90;;
15012;SDS011;7603;49.432;11.418;2023-06-19T02:38:44;7.25;;;6.57;;
15012;SDS011;7603;49.432;11.418;2023-06-19T02:41:14;6.97;;;6.50;;
15012;SDS011;7603;49.432;11.418;2023-06-19T02:43:43;7.05;;;6.55;;
15012;SDS011;7603;49.432;11.418;2023-06-19T02:46:10;8.55;;;6.47;;
15012;SDS011;7603;49.432;11.418;2023-06-19T02:48:36;6.78;;;6.32;;
15012;SDS011;7603;49.432;11.418;2023-06-19T02:51:01;7.43;;;6.82;;
15012;SDS011;7603;49.432;11.418;2023-06-19T02:53:27;7.10;;;6.70;;
15012;SDS011;7603;49.432;11.418;2023-06-19T02:55:52;7.93;;;6.47;;
15012;SDS011;7603;49.432;11.418;2023-06-19T02:58:18;6.68;;;6.28;;
15012;SDS011;7603;49.432;11.418;2023-06-19T03:00:44;7.05;;;6.65;;
15012;SDS011;7603;49.432;11.418;2023-06-19T03:03:10;7.18;;;6.68;;
15012;SDS011;7603;49.432;11.418;2023-06-19T03:05:36;7.15;;;6.65;;
15012;SDS011;7603;49.432;11.418;2023-06-19T03:08:02;7.65;;;6.95;;
15012;SDS011;7603;49.432;11.418;2023-06-19T03:10:27;7.05;;;6.35;;
15012;SDS011;7603;49.432;11.418;2023-06-19T03:12:53;7.95;;;7.30;;
15012;SDS011;7603;49.432;11.418;2023-06-19T03:15:18;7.50;;;6.82;;
15012;SDS011;7603;49.432;11.418;2023-06-19T03:17:44;7.40;;;6.80;;
15012;SDS011;7603;49.432;11.418;2023-06-19T03:20:10;8.20;;;7.40;;
15012;SDS011;7603;49.432;11.418;2023-06-19T03:22:39;9.07;;;8.18;;
15012;SDS011;7603;49.432;11.418;2023-06-19T03:25:06;7.60;;;6.90;;
15012;SDS011;7603;49.432;11.418;2023-06-19T03:27:32;8.52;;;7.80;;
15012;SDS011;7603;49.432;11.418;2023-06-19T03:29:58;8.52;;;7.82;;
15012;SDS011;7603;49.432;11.418;2023-06-19T03:32:23;9.25;;;8.38;;
15012;SDS011;7603;49.432;11.418;2023-06-19T03:34:49;8.43;;;7.60;;
15012;SDS011;7603;49.432;11.418;2023-06-19T03:37:15;8.50;;;7.40;;
15012;SDS011;7603;49.432;11.418;2023-06-19T03:39:41;7.43;;;6.93;;
15012;SDS011;7603;49.432;11.418;2023-06-19T03:42:07;7.35;;;6.75;;
15012;SDS011;7603;49.432;11.418;2023-06-19T03:44:33;6.85;;;6.40;;
15012;SDS011;7603;49.432;11.418;2023-06-19T03:46:59;7.47;;;6.93;;
15012;SDS011;7603;49.432;11.418;2023-06-19T03:49:24;8.95;;;8.18;;
15012;SDS011;7603;49.432;11.418;2023-06-19T03:51:51;7.72;;;7.13;;
15012;SDS011;7603;49.432;11.418;2023-06-19T03:54:16;10.13;;;9.07;;
15012;SDS011;7603;49.432;11.418;2023-06-19T03:56:42;8.90;;;8.13;;
15012;SDS011;7603;49.432;11.418;2023-06-19T03:59:08;9.02;;;8.10;;
15012;SDS011;7603;49.432;11.418;2023-06-19T04:01:33;7.63;;;7.03;;
15012;SDS011;7603;49.432;11.418;2023-06-19T04:03:59;7.68;;;7.00;;
15012;SDS011;7603;49.432;11.418;2023-06-19T04:06:24;6.95;;;6.32;;
15012;SDS011;7603;49.432;11.418;2023-06-19T04:08:50;6.30;;;5.82;;
15012;SDS011;7603;49.432;11.418;2023-06-19T04:11:16;7.13;;;6.50;;
15012;SDS011;7603;49.432;11.418;2023-06-19T04:13:42;6.65;;;6.15;;
15012;SDS011;7603;49.432;11.418;2023-06-19T04:16:07;7.22;;;6.72;;
15012;SDS011;7603;49.432;11.418;2023-06-19T04:18:33;7.28;;;6.55;;
15012;SDS011;7603;49.432;11.418;2023-06-19T04:21:00;7.85;;;6.70;;
15012;SDS011;7603;49.432;11.418;2023-06-19T04:23:26;6.45;;;6.05;;
15012;SDS011;7603;49.432;11.418;2023-06-19T04:25:51;7.07;;;6.57;;
15012;SDS011;7603;49.432;11.418;2023-06-19T04:28:17;6.93;;;6.32;;
15012;SDS011;7603;49.432;11.418;2023-06-19T04:30:43;7.22;;;6.75;;
15012;SDS011;7603;49.432;11.418;2023-06-19T04:33:08;7.20;;;6.70;;
15012;SDS011;7603;49.432;11.418;2023-06-19T04:35:34;7.38;;;6.95;;
15012;SDS011;7603;49.432;11.418;2023-06-19T04:38:05;7.10;;;6.60;;
15012;SDS011;7603;49.432;11.418;2023-06-19T04:40:31;7.20;;;6.65;;
15012;SDS011;7603;49.432;11.418;2023-06-19T04:42:57;7.70;;;7.20;;
15012;SDS011;7603;49.432;11.418;2023-06-19T04:45:23;7.05;;;6.43;;
15012;SDS011;7603;49.432;11.418;2023-06-19T04:47:49;6.50;;;6.10;;
15012;SDS011;7603;49.432;11.418;2023-06-19T04:50:14;7.50;;;6.80;;
15012;SDS011;7603;49.432;11.418;2023-06-19T04:52:41;7.38;;;6.88;;
15012;SDS011;7603;49.432;11.418;2023-06-19T04:55:07;7.13;;;6.63;;
15012;SDS011;7603;49.432;11.418;2023-06-19T04:57:36;7.43;;;6.93;;
15012;SDS011;7603;49.432;11.418;2023-06-19T05:00:05;6.97;;;6.38;;
15012;SDS011;7603;49.432;11.418;2023-06-19T05:02:32;7.43;;;6.82;;
15012;SDS011;7603;49.432;11.418;2023-06-19T05:04:58;8.23;;;7.63;;
15012;SDS011;7603;49.432;11.418;2023-06-19T05:07:27;7.32;;;6.80;;
15012;SDS011;7603;49.432;11.418;2023-06-19T05:09:57;7.47;;;7.03;;
15012;SDS011;7603;49.432;11.418;2023-06-19T05:12:23;6.97;;;6.55;;
15012;SDS011;7603;49.432;11.418;2023-06-19T05:14:49;8.30;;;7.57;;
15012;SDS011;7603;49.432;11.418;2023-06-19T05:17:14;7.82;;;7.32;;
15012;SDS011;7603;49.432;11.418;2023-06-19T05:19:40;7.65;;;7.03;;
15012;SDS011;7603;49.432;11.418;2023-06-19T05:22:05;8.25;;;7.47;;
15012;SDS011;7603;49.432;11.418;2023-06-19T05:24:31;7.43;;;6.78;;
15012;SDS011;7603;49.432;11.418;2023-06-19T05:26:57;7.80;;;7.20;;
15012;SDS011;7603;49.432;11.418;2023-06-19T05:29:23;7.68;;;7.03;;
15012;SDS011;7603;49.432;11.418;2023-06-19T05:31:48;7.55;;;7.05;;
15012;SDS011;7603;49.432;11.418;2023-06-19T05:34:14;8.43;;;7.93;;
15012;SDS011;7603;49.432;11.418;2023-06-19T05:36:39;7.70;;;7.20;;
15012;SDS011;7603;49.432;11.418;2023-06-19T05:39:05;8.85;;;8.00;;
15012;SDS011;7603;49.432;11.418;2023-06-19T05:41:31;7.72;;;7.22;;
15012;SDS011;7603;49.432;11.418;2023-06-19T05:43:57;8.77;;;7.18;;
15012;SDS011;7603;49.432;11.418;2023-06-19T05:46:22;7.80;;;7.07;;
15012;SDS011;7603;49.432;11.418;2023-06-19T05:48:48;7.45;;;6.95;;
15012;SDS011;7603;49.432;11.418;2023-06-19T05:51:14;7.07;;;6.57;;
15012;SDS011;7603;49.432;11.418;2023-06-19T05:53:39;8.20;;;7.40;;
15012;SDS011;7603;49.432;11.418;2023-06-19T05:56:05;7.63;;;7.22;;
15012;SDS011;7603;49.432;11.418;2023-06-19T05:58:31;7.50;;;7.00;;
15012;SDS011;7603;49.432;11.418;2023-06-19T06:00:57;8.77;;;7.97;;
15012;SDS011;7603;49.432;11.418;2023-06-19T06:03:26;8.63;;;7.88;;
15012;SDS011;7603;49.432;11.418;2023-06-19T06:05:52;8.43;;;7.82;;
15012;SDS011;7603;49.432;11.418;2023-06-19T06:08:18;9.20;;;7.45;;
15012;SDS011;7603;49.432;11.418;2023-06-19T06:10:44;8.25;;;7.50;;
15012;SDS011;7603;49.432;11.418;2023-06-19T06:13:09;8.20;;;7.60;;
15012;SDS011;7603;49.432;11.418;2023-06-19T06:15:35;9.95;;;8.10;;
15012;SDS011;7603;49.432;11.418;2023-06-19T06:18:00;8.70;;;7.88;;
15012;SDS011;7603;49.432;11.418;2023-06-19T06:20:28;7.82;;;7.22;;
15012;SDS011;7603;49.432;11.418;2023-06-19T06:22:54;8.68;;;7.70;;
15012;SDS011;7603;49.432;11.418;2023-06-19T06:25:19;8.55;;;7.85;;
15012;SDS011;7603;49.432;11.418;2023-06-19T06:27:45;9.15;;;8.48;;
15012;SDS011;7603;49.432;11.418;2023-06-19T06:30:11;8.07;;;7.45;;
15012;SDS011;7603;49.432;11.418;2023-06-19T06:32:37;7.22;;;6.72;;
15012;SDS011;7603;49.432;11.418;2023-06-19T06:35:03;8.45;;;7.80;;
15012;SDS011;7603;49.432;11.418;2023-06-19T06:37:29;7.40;;;7.00;;
15012;SDS011;7603;49.432;11.418;2023-06-19T06:39:55;8.30;;;7.60;;
15012;SDS011;7603;49.432;11.418;2023-06-19T06:42:20;8.30;;;7.60;;
15012;SDS011;7603;49.432;11.418;2023-06-19T06:44:46;8.23;;;7.63;;
15012;SDS011;7603;49.432;11.418;2023-06-19T06:47:11;8.20;;;7.63;;
15012;SDS011;7603;49.432;11.418;2023-06-19T06:49:37;8.40;;;7.70;;
15012;SDS011;7603;49.432;11.418;2023-06-19T06:52:03;7.50;;;7.07;;
15012;SDS011;7603;49.432;11.418;2023-06-19T06:54:29;8.40;;;7.65;;
15012;SDS011;7603;49.432;11.418;2023-06-19T06:56:55;7.88;;;7.30;;
15012;SDS011;7603;49.432;11.418;2023-06-19T06:59:24;8.55;;;7.03;;
15012;SDS011;7603;49.432;11.418;2023-06-19T07:01:52;7.20;;;6.60;;
15012;SDS011;7603;49.432;11.418;2023-06-19T07:04:21;7.03;;;6.60;;
15012;SDS011;7603;49.432;11.418;2023-06-19T07:06:47;7.32;;;6.82;;
15012;SDS011;7603;49.432;11.418;2023-06-19T07:09:13;6.97;;;6.43;;
15012;SDS011;7603;49.432;11.418;2023-06-19T07:11:40;6.43;;;6.05;;
15012;SDS011;7603;49.432;11.418;2023-06-19T07:14:05;6.68;;;6.18;;
15012;SDS011;7603;49.432;11.418;2023-06-19T07:16:31;7.20;;;6.63;;
15012;SDS011;7603;49.432;11.418;2023-06-19T07:18:57;6.60;;;6.10;;
15012;SDS011;7603;49.432;11.418;2023-06-19T07:21:22;7.18;;;6.55;;
15012;SDS011;7603;49.432;11.418;2023-06-19T07:23:48;6.32;;;6.00;;
15012;SDS011;7603;49.432;11.418;2023-06-19T07:26:14;6.90;;;6.30;;
15012;SDS011;7603;49.432;11.418;2023-06-19T07:28:41;7.13;;;6.63;;
15012;SDS011;7603;49.432;11.418;2023-06-19T07:31:06;6.68;;;6.28;;
15012;SDS011;7603;49.432;11.418;2023-06-19T07:33:33;6.68;;;6.20;;
15012;SDS011;7603;49.432;11.418;2023-06-19T07:35:58;7.45;;;6.80;;
15012;SDS011;7603;49.432;11.418;2023-06-19T07:38:24;6.93;;;6.53;;
15012;SDS011;7603;49.432;11.418;2023-06-19T07:40:49;6.53;;;6.03;;
15012;SDS011;7603;49.432;11.418;2023-06-19T07:43:15;7.07;;;6.57;;
15012;SDS011;7603;49.432;11.418;2023-06-19T07:45:42;6.68;;;6.07;;
15012;SDS011;7603;49.432;11.418;2023-06-19T07:48:08;6.10;;;5.80;;
15012;SDS011;7603;49.432;11.418;2023-06-19T07:50:33;8.05;;;6.97;;
15012;SDS011;7603;49.432;11.418;2023-06-19T07:52:59;6.57;;;6.13;;
15012;SDS011;7603;49.432;11.418;2023-06-19T07:55:24;7.30;;;6.63;;
15012;SDS011;7603;49.432;11.418;2023-06-19T07:57:50;6.43;;;5.93;;
15012;SDS011;7603;49.432;11.418;2023-06-19T08:00:17;7.25;;;6.75;;
15012;SDS011;7603;49.432;11.418;2023-06-19T08:02:43;7.25;;;6.60;;
15012;SDS011;7603;49.432;11.418;2023-06-19T08:05:09;6.93;;;6.47;;
15012;SDS011;7603;49.432;11.418;2023-06-19T08:07:35;6.85;;;6.43;;
15012;SDS011;7603;49.432;11.418;2023-06-19T08:10:02;6.90;;;6.50;;
15012;SDS011;7603;49.432;11.418;2023-06-19T08:12:30;7.60;;;7.00;;
15012;SDS011;7603;49.432;11.418;2023-06-19T08:14:56;6.90;;;6.50;;
15012;SDS011;7603;49.432;11.418;2023-06-19T08:17:21;7.28;;;6.63;;
15012;SDS011;7603;49.432;11.418;2023-06-19T08:19:47;7.32;;;6.65;;
15012;SDS011;7603;49.432;11.418;2023-06-19T08:22:14;6.72;;;6.22;;
15012;SDS011;7603;49.432;11.418;2023-06-19T08:24:40;7.05;;;6.45;;
15012;SDS011;7603;49.432;11.418;2023-06-19T08:27:06;7.22;;;6.65;;
15012;SDS011;7603;49.432;11.418;2023-06-19T08:29:32;6.70;;;6.32;;
15012;SDS011;7603;49.432;11.418;2023-06-19T08:31:57;8.05;;;7.35;;
15012;SDS011;7603;49.432;11.418;2023-06-19T08:34:23;7.65;;;7.25;;
15012;SDS011;7603;49.432;11.418;2023-06-19T08:36:49;7.40;;;7.00;;
15012;SDS011;7603;49.432;11.418;2023-06-19T08:39:15;6.90;;;6.50;;
15012;SDS011;7603;49.432;11.418;2023-06-19T08:41:41;7.35;;;6.90;;
15012;SDS011;7603;49.432;11.418;2023-06-19T08:44:07;7.68;;;7.03;;
15012;SDS011;7603;49.432;11.418;2023-06-19T08:46:34;7.70;;;7.10;;
15012;SDS011;7603;49.432;11.418;2023-06-19T08:49:02;6.70;;;6.40;;
15012;SDS011;7603;49.432;11.418;2023-06-19T08:51:28;7.80;;;7.13;;
15012;SDS011;7603;49.432;11.418;2023-06-19T08:54:00;7.13;;;6.65;;
15012;SDS011;7603;49.432;11.418;2023-06-19T08:56:29;7.40;;;6.88;;
15012;SDS011;7603;49.432;11.418;2023-06-19T08:59:07;7.32;;;6.82;;
15012;SDS011;7603;49.432;11.418;2023-06-19T09:01:34;7.38;;;6.75;;
15012;SDS011;7603;49.432;11.418;2023-06-19T09:03:59;8.18;;;7.28;;
15012;SDS011;7603;49.432;11.418;2023-06-19T09:06:25;7.85;;;7.15;;
15012;SDS011;7603;49.432;11.418;2023-06-19T09:08:59;7.78;;;7.18;;
15012;SDS011;7603;49.432;11.418;2023-06-19T09:11:25;7.63;;;6.93;;
15012;SDS011;7603;49.432;11.418;2023-06-19T09:13:57;7.63;;;7.13;;
15012;SDS011;7603;49.432;11.418;2023-06-19T09:16:23;7.00;;;6.57;;
15012;SDS011;7603;49.432;11.418;2023-06-19T09:18:49;7.63;;;6.60;;
15012;SDS011;7603;49.432;11.418;2023-06-19T09:21:15;7.47;;;6.78;;
15012;SDS011;7603;49.432;11.418;2023-06-19T09:23:43;7.20;;;6.65;;
15012;SDS011;7603;49.432;11.418;2023-06-19T09:26:09;7.80;;;7.20;;
15012;SDS011;7603;49.432;11.418;2023-06-19T09:28:39;7.00;;;6.60;;
15012;SDS011;7603;49.432;11.418;2023-06-19T09:31:07;6.85;;;6.35;;
15012;SDS011;7603;49.432;11.418;2023-06-19T09:33:33;7.78;;;6.97;;
15012;SDS011;7603;49.432;11.418;2023-06-19T09:36:01;7.32;;;6.82;;
15012;SDS011;7603;49.432;11.418;2023-06-19T09:38:29;7.78;;;7.28;;
15012;SDS011;7603;49.432;11.418;2023-06-19T09:40:57;7.18;;;6.78;;
15012;SDS011;7603;49.432;11.418;2023-06-19T09:43:29;7.43;;;7.00;;
15012;SDS011;7603;49.432;11.418;2023-06-19T09:46:02;7.82;;;7.32;;
15012;SDS011;7603;49.432;11.418;2023-06-19T09:48:30;7.47;;;6.82;;
15012;SDS011;7603;49.432;11.418;2023-06-19T09:51:00;7.30;;;6.63;;
15012;SDS011;7603;49.432;11.418;2023-06-19T09:53:27;7.63;;;6.72;;
15012;SDS011;7603;49.432;11.418;2023-06-19T09:55:53;7.30;;;6.75;;
15012;SDS011;7603;49.432;11.418;2023-06-19T09:58:21;8.18;;;7.57;;
15012;SDS011;7603;49.432;11.418;2023-06-19T10:00:47;7.20;;;6.65;;
15012;SDS011;7603;49.432;11.418;2023-06-19T10:03:15;7.78;;;7.00;;
15012;SDS011;7603;49.432;11.418;2023-06-19T10:05:42;7.68;;;7.22;;
15012;SDS011;7603;49.432;11.418;2023-06-19T10:08:08;7.53;;;7.03;;
15012;SDS011;7603;49.432;11.418;2023-06-19T10:10:34;6.93;;;6.60;;
15012;SDS011;7603;49.432;11.418;2023-06-19T10:13:11;7.70;;;7.25;;
15012;SDS011;7603;49.432;11.418;2023-06-19T10:15:42;7.38;;;6.97;;
15012;SDS011;7603;49.432;11.418;2023-06-19T10:18:12;8.60;;;7.78;;
15012;SDS011;7603;49.432;11.418;2023-06-19T10:20:39;6.90;;;6.53;;
15012;SDS011;7603;49.432;11.418;2023-06-19T10:23:06;7.45;;;6.85;;
15012;SDS011;7603;49.432;11.418;2023-06-19T10:25:36;7.55;;;7.18;;
15012;SDS011;7603;49.432;11.418;2023-06-19T10:28:03;7.60;;;7.10;;
15012;SDS011;7603;49.432;11.418;2023-06-19T10:30:33;8.23;;;7.05;;
15012;SDS011;7603;49.432;11.418;2023-06-19T10:32:59;7.85;;;7.28;;
15012;SDS011;7603;49.432;11.418;2023-06-19T10:35:29;6.28;;;5.93;;
15012;SDS011;7603;49.432;11.418;2023-06-19T10:38:03;7.05;;;6.65;;
15012;SDS011;7603;49.432;11.418;2023-06-19T10:40:29;6.55;;;6.25;;
15012;SDS011;7603;49.432;11.418;2023-06-19T10:42:55;7.15;;;6.68;;
15012;SDS011;7603;49.432;11.418;2023-06-19T10:45:21;6.68;;;6.28;;
15012;SDS011;7603;49.432;11.418;2023-06-19T10:47:53;6.55;;;6.15;;
15012;SDS011;7603;49.432;11.418;2023-06-19T10:50:19;6.40;;;6.00;;
15012;SDS011;7603;49.432;11.418;2023-06-19T10:52:45;8.40;;;6.35;;
15012;SDS011;7603;49.432;11.418;2023-06-19T10:55:12;6.10;;;5.70;;
15012;SDS011;7603;49.432;11.418;2023-06-19T10:57:39;6.05;;;5.75;;
15012;SDS011;7603;49.432;11.418;2023-06-19T11:00:09;6.15;;;5.30;;
15012;SDS011;7603;49.432;11.418;2023-06-19T11:02:38;5.70;;;5.40;;
15012;SDS011;7603;49.432;11.418;2023-06-19T11:05:05;6.22;;;5.93;;
15012;SDS011;7603;49.432;11.418;2023-06-19T11:07:31;6.30;;;5.88;;
15012;SDS011;7603;49.432;11.418;2023-06-19T11:09:57;5.88;;;5.57;;
15012;SDS011;7603;49.432;11.418;2023-06-19T11:12:23;5.35;;;4.97;;
15012;SDS011;7603;49.432;11.418;2023-06-19T11:14:49;4.97;;;4.78;;
15012;SDS011;7603;49.432;11.418;2023-06-19T11:17:15;5.40;;;5.00;;
15012;SDS011;7603;49.432;11.418;2023-06-19T11:19:46;5.43;;;5.13;;
15012;SDS011;7603;49.432;11.418;2023-06-19T11:22:12;7.28;;;5.60;;
15012;SDS011;7603;49.432;11.418;2023-06-19T11:24:46;6.00;;;5.28;;
15012;SDS011;7603;49.432;11.418;2023-06-19T11:27:17;5.32;;;5.13;;
15012;SDS011;7603;49.432;11.418;2023-06-19T11:29:58;5.30;;;4.78;;
15012;SDS011;7603;49.432;11.418;2023-06-19T11:32:30;5.68;;;5.30;;
15012;SDS011;7603;49.432;11.418;2023-06-19T11:34:56;6.45;;;5.43;;
15012;SDS011;7603;49.432;11.418;2023-06-19T11:37:23;4.93;;;4.68;;
15012;SDS011;7603;49.432;11.418;2023-06-19T11:39:49;5.05;;;4.70;;
15012;SDS011;7603;49.432;11.418;2023-06-19T11:42:17;4.70;;;4.50;;
15012;SDS011;7603;49.432;11.418;2023-06-19T11:44:56;4.90;;;4.60;;
15012;SDS011;7603;49.432;11.418;2023-06-19T11:47:22;4.32;;;4.13;;
15012;SDS011;7603;49.432;11.418;2023-06-19T11:49:48;4.22;;;4.03;;
15012;SDS011;7603;49.432;11.418;2023-06-19T11:52:15;4.47;;;4.13;;
15012;SDS011;7603;49.432;11.418;2023-06-19T11:54:41;4.20;;;4.00;;
15012;SDS011;7603;49.432;11.418;2023-06-19T11:57:06;3.65;;;3.55;;
15012;SDS011;7603;49.432;11.418;2023-06-19T11:59:36;5.30;;;4.15;;
15012;SDS011;7603;49.432;11.418;2023-06-19T12:02:03;4.80;;;4.38;;
15012;SDS011;7603;49.432;11.418;2023-06-19T12:04:29;4.03;;;3.83;;
15012;SDS011;7603;49.432;11.418;2023-06-19T12:06:55;3.63;;;3.42;;
15012;SDS011;7603;49.432;11.418;2023-06-19T12:09:21;3.97;;;3.70;;
15012;SDS011;7603;49.432;11.418;2023-06-19T12:11:47;3.53;;;3.33;;
15012;SDS011;7603;49.432;11.418;2023-06-19T12:14:12;3.53;;;3.33;;
15012;SDS011;7603;49.432;11.418;2023-06-19T12:16:38;3.70;;;3.50;;
15012;SDS011;7603;49.432;11.418;2023-06-19T12:19:03;3.55;;;3.25;;
15012;SDS011;7603;49.432;11.418;2023-06-19T12:21:29;3.05;;;2.95;;
15012;SDS011;7603;49.432;11.418;2023-06-19T12:23:55;3.90;;;3.60;;
15012;SDS011;7603;49.432;11.418;2023-06-19T12:26:20;4.65;;;4.38;;
15012;SDS011;7603;49.432;11.418;2023-06-19T12:28:46;4.18;;;3.97;;
15012;SDS011;7603;49.432;11.418;2023-06-19T12:31:12;3.70;;;3.60;;
15012;SDS011;7603;49.432;11.418;2023-06-19T12:33:37;3.97;;;3.70;;
15012;SDS011;7603;49.432;11.418;2023-06-19T12:36:08;4.63;;;4.10;;
15012;SDS011;7603;49.432;11.418;2023-06-19T12:38:37;4.70;;;4.40;;
15012;SDS011;7603;49.432;11.418;2023-06-19T12:41:03;4.00;;;3.90;;
15012;SDS011;7603;49.432;11.418;2023-06-19T12:43:29;4.00;;;3.80;;
15012;SDS011;7603;49.432;11.418;2023-06-19T12:45:56;5.18;;;3.83;;
15012;SDS011;7603;49.432;11.418;2023-06-19T12:48:24;4.00;;;3.65;;
15012;SDS011;7603;49.432;11.418;2023-06-19T12:50:50;3.80;;;3.70;;
15012;SDS011;7603;49.432;11.418;2023-06-19T12:53:16;3.85;;;3.55;;
15012;SDS011;7603;49.432;11.418;2023-06-19T12:55:41;3.55;;;3.45;;
15012;SDS011;7603;49.432;11.418;2023-06-19T12:58:07;4.07;;;3.78;;
15012;SDS011;7603;49.432;11.418;2023-06-19T13:00:33;3.15;;;3.05;;
15012;SDS011;7603;49.432;11.418;2023-06-19T13:02:59;4.60;;;3.20;;
15012;SDS011;7603;49.432;11.418;2023-06-19T13:05:25;3.88;;;3.58;;
15012;SDS011;7603;49.432;11.418;2023-06-19T13:07:51;3.60;;;3.40;;
15012;SDS011;7603;49.432;11.418;2023-06-19T13:10:16;3.58;;;3.38;;
15012;SDS011;7603;49.432;11.418;2023-06-19T13:12:42;3.15;;;3.00;;
15012;SDS011;7603;49.432;11.418;2023-06-19T13:15:07;4.35;;;3.05;;
15012;SDS011;7603;49.432;11.418;2023-06-19T13:17:33;3.25;;;3.15;;
15012;SDS011;7603;49.432;11.418;2023-06-19T13:19:59;3.65;;;3.45;;
15012;SDS011;7603;49.432;11.418;2023-06-19T13:22:25;3.08;;;2.95;;
15012;SDS011;7603;49.432;11.418;2023-06-19T13:24:51;3.35;;;3.05;;
15012;SDS011;7603;49.432;11.418;2023-06-19T13:27:17;4.00;;;3.90;;
15012;SDS011;7603;49.432;11.418;2023-06-19T13:29:42;3.60;;;3.40;;
15012;SDS011;7603;49.432;11.418;2023-06-19T13:32:08;3.28;;;3.13;;
15012;SDS011;7603;49.432;11.418;2023-06-19T13:34:34;3.88;;;3.67;;
15012;SDS011;7603;49.432;11.418;2023-06-19T13:36:59;3.13;;;2.92;;
15012;SDS011;7603;49.432;11.418;2023-06-19T13:39:25;6.55;;;3.15;;
15012;SDS011;7603;49.432;11.418;2023-06-19T13:41:51;3.33;;;3.13;;
15012;SDS011;7603;49.432;11.418;2023-06-19T13:44:17;3.03;;;2.92;;
15012;SDS011;7603;49.432;11.418;2023-06-19T13:46:44;3.63;;;3.38;;
15012;SDS011;7603;49.432;11.418;2023-06-19T13:49:10;3.17;;;3.00;;
15012;SDS011;7603;49.432;11.418;2023-06-19T13:51:36;3.13;;;2.95;;
15012;SDS011;7603;49.432;11.418;2023-06-19T13:54:02;3.40;;;3.30;;
15012;SDS011;7603;49.432;11.418;2023-06-19T13:56:29;3.67;;;3.47;;
15012;SDS011;7603;49.432;11.418;2023-06-19T13:58:55;3.80;;;3.50;;
15012;SDS011;7603;49.432;11.418;2023-06-19T14:01:20;4.35;;;4.05;;
15012;SDS011;7603;49.432;11.418;2023-06-19T14:03:46;3.97;;;3.78;;
15012;SDS011;7603;49.432;11.418;2023-06-19T14:06:12;4.53;;;4.32;;
15012;SDS011;7603;49.432;11.418;2023-06-19T14:08:37;4.72;;;4.47;;
15012;SDS011;7603;49.432;11.418;2023-06-19T14:11:04;4.97;;;4.68;;
15012;SDS011;7603;49.432;11.418;2023-06-19T14:13:30;5.10;;;4.78;;
15012;SDS011;7603;49.432;11.418;2023-06-19T14:15:55;5.47;;;5.07;;
15012;SDS011;7603;49.432;11.418;2023-06-19T14:18:21;5.25;;;4.95;;
15012;SDS011;7603;49.432;11.418;2023-06-19T14:20:47;5.32;;;4.88;;
15012;SDS011;7603;49.432;11.418;2023-06-19T14:23:13;5.45;;;5.15;;
15012;SDS011;7603;49.432;11.418;2023-06-19T14:25:38;6.00;;;5.65;;
15012;SDS011;7603;49.432;11.418;2023-06-19T14:28:04;7.65;;;7.25;;
15012;SDS011;7603;49.432;11.418;2023-06-19T14:30:30;7.18;;;5.80;;
15012;SDS011;7603;49.432;11.418;2023-06-19T14:32:55;5.00;;;4.70;;
15012;SDS011;7603;49.432;11.418;2023-06-19T14:35:21;4.95;;;4.65;;
15012;SDS011;7603;49.432;11.418;2023-06-19T14:37:46;5.10;;;4.72;;
15012;SDS011;7603;49.432;11.418;2023-06-19T14:40:12;4.95;;;4.55;;
15012;SDS011;7603;49.432;11.418;2023-06-19T14:42:38;5.03;;;4.60;;
15012;SDS011;7603;49.432;11.418;2023-06-19T14:45:03;3.88;;;3.67;;